This is the latest recevied weather packets stored in our database for station/object OE6ACM-14. If no packets are shown the sender has not sent any weather packets the latest 10 day(s).
| Time | Temp. | Humidity | Pressure | Rain* | Wind** | Luminosity | Snow |
|---|---|---|---|---|---|---|---|
| 1777967525 | 32.78° C | 20% | 921.2 hPa | - | - | - | - |
| 1777967225 | 36.11° C | 18% | 921.2 hPa | - | - | - | - |
| 1777966925 | 35.56° C | 19% | 921.3 hPa | - | - | - | - |
| 1777966625 | 32.22° C | 22% | 921.4 hPa | - | - | - | - |
| 1777966325 | 32.78° C | 21% | 921.4 hPa | - | - | - | - |
| 1777966025 | 27.22° C | 27% | 921.5 hPa | - | - | - | - |
| 1777965725 | 26.11° C | 27% | 921.6 hPa | - | - | - | - |
| 1777965425 | 26.67° C | 27% | 921.6 hPa | - | - | - | - |
| 1777965125 | 26.67° C | 26% | 921.7 hPa | - | - | - | - |
| 1777964825 | 26.67° C | 28% | 921.6 hPa | - | - | - | - |
| 1777964525 | 25° C | 29% | 921.7 hPa | - | - | - | - |
| 1777964225 | 25.56° C | 28% | 921.7 hPa | - | - | - | - |
| 1777963925 | 25.56° C | 27% | 921.7 hPa | - | - | - | - |
| 1777963625 | 25.56° C | 28% | 921.8 hPa | - | - | - | - |
| 1777963325 | 26.11° C | 28% | 921.8 hPa | - | - | - | - |
| 1777963025 | 24.44° C | 29% | 922 hPa | - | - | - | - |
| 1777962725 | 23.33° C | 30% | 922.1 hPa | - | - | - | - |
| 1777962425 | 23.89° C | 29% | 922.1 hPa | - | - | - | - |
| 1777962125 | 24.44° C | 30% | 922.1 hPa | - | - | - | - |
| 1777961825 | 25° C | 27% | 922.1 hPa | - | - | - | - |
| 1777961525 | 27.22° C | 25% | 922.2 hPa | - | - | - | - |
| 1777961225 | 30° C | 23% | 922.1 hPa | - | - | - | - |
| 1777960925 | 27.78° C | 28% | 922.2 hPa | - | - | - | - |
| 1777960625 | 25° C | 33% | 922.3 hPa | - | - | - | - |
| 1777960325 | 19.44° C | 44% | 922.4 hPa | - | - | - | - |
* Rain since midnight (hover to see other rain measurements)
** Current wind speed in m/s (hover to see current wind gust speed)